createdAt,value
2018-08-10T00:00:17.433Z,1009.66
2018-08-10T00:02:10.244Z,1009.75
2018-08-10T00:03:10.221Z,1009.83
2018-08-10T00:05:03.040Z,1009.78
2018-08-10T00:06:02.980Z,1009.85
2018-08-10T00:07:55.809Z,1009.87
2018-08-10T00:08:55.832Z,1009.86
2018-08-10T00:10:48.604Z,1009.94
2018-08-10T00:11:48.557Z,1009.91
2018-08-10T00:13:41.350Z,1009.94
2018-08-10T00:14:41.321Z,1009.97
2018-08-10T00:16:34.150Z,1010.04
2018-08-10T00:17:34.100Z,1010.07
2018-08-10T00:19:26.935Z,1010.06
2018-08-10T00:20:26.891Z,1010.04
2018-08-10T00:22:19.680Z,1010.10
2018-08-10T00:23:19.668Z,1010.09
2018-08-10T00:25:12.485Z,1010.14
2018-08-10T00:26:12.443Z,1010.16
2018-08-10T00:28:05.256Z,1010.21
2018-08-10T00:29:05.217Z,1010.20
2018-08-10T00:30:58.048Z,1010.26
2018-08-10T00:31:58.002Z,1010.29
2018-08-10T00:33:50.810Z,1010.33
2018-08-10T00:34:50.777Z,1010.35
2018-08-10T00:36:44.101Z,1010.40
2018-08-10T00:37:44.043Z,1010.39
2018-08-10T00:39:36.860Z,1010.38
2018-08-10T00:40:36.827Z,1010.44
2018-08-10T00:42:29.662Z,1010.41
2018-08-10T00:43:29.611Z,1010.42
2018-08-10T00:45:22.417Z,1010.48
2018-08-10T00:46:22.424Z,1010.47
2018-08-10T00:48:15.204Z,1010.52
2018-08-10T00:49:15.171Z,1010.56
2018-08-10T00:51:07.993Z,1010.59
2018-08-10T00:52:07.946Z,1010.58
2018-08-10T00:54:00.752Z,1010.57
2018-08-10T00:55:00.722Z,1010.62
2018-08-10T00:56:53.559Z,1010.65
2018-08-10T00:57:53.508Z,1010.65
2018-08-10T00:59:46.333Z,1010.68
2018-08-10T01:00:46.283Z,1010.67
2018-08-10T01:02:39.131Z,1010.69
2018-08-10T01:03:39.064Z,1010.72
2018-08-10T01:05:31.878Z,1010.74
2018-08-10T01:06:31.838Z,1010.79
2018-08-10T01:08:24.678Z,1010.79
2018-08-10T01:09:24.616Z,1010.83
2018-08-10T01:11:17.447Z,1010.84
2018-08-10T01:12:17.406Z,1010.86
2018-08-10T01:14:10.237Z,1010.88
2018-08-10T01:15:10.219Z,1010.87
2018-08-10T01:17:03.004Z,1010.86
2018-08-10T01:18:02.955Z,1010.91
2018-08-10T01:19:55.765Z,1010.96
2018-08-10T01:20:55.734Z,1010.95
2018-08-10T01:22:48.571Z,1010.96
2018-08-10T01:23:48.509Z,1010.97
2018-08-10T01:25:41.315Z,1010.99
2018-08-10T01:26:41.283Z,1011.03
2018-08-10T01:28:34.126Z,1011.06
2018-08-10T01:29:34.056Z,1011.00
2018-08-10T01:31:26.873Z,1011.09
2018-08-10T01:32:26.838Z,1011.10
2018-08-10T01:34:19.658Z,1011.08
2018-08-10T01:35:19.620Z,1011.08
2018-08-10T01:37:12.420Z,1011.10
2018-08-10T01:38:12.380Z,1011.09
2018-08-10T01:40:05.221Z,1011.17
2018-08-10T01:41:05.165Z,1011.15
2018-08-10T01:42:57.996Z,1011.18
2018-08-10T01:43:57.940Z,1011.16
2018-08-10T01:45:50.772Z,1011.22
2018-08-10T01:46:50.719Z,1011.19
2018-08-10T01:48:43.560Z,1011.24
2018-08-10T01:49:43.523Z,1011.20
2018-08-10T01:51:36.325Z,1011.21
2018-08-10T01:52:36.286Z,1011.25
2018-08-10T01:54:29.129Z,1011.23
2018-08-10T01:55:29.080Z,1011.21
2018-08-10T01:57:21.887Z,1011.23
2018-08-10T01:58:21.851Z,1011.27
2018-08-10T02:00:14.686Z,1011.28
2018-08-10T02:01:14.640Z,1011.29
2018-08-10T02:03:07.451Z,1011.31
2018-08-10T02:04:07.414Z,1011.28
2018-08-10T02:06:00.231Z,1011.30
2018-08-10T02:07:00.190Z,1011.33
2018-08-10T02:08:53.006Z,1011.33
2018-08-10T02:09:52.960Z,1011.31
2018-08-10T02:11:45.785Z,1011.30
2018-08-10T02:12:45.746Z,1011.27
2018-08-10T02:14:39.065Z,1011.34
2018-08-10T02:15:39.021Z,1011.34
2018-08-10T02:17:31.836Z,1011.36
2018-08-10T02:18:31.801Z,1011.35
2018-08-10T02:20:24.633Z,1011.38
2018-08-10T02:21:24.585Z,1011.40
2018-08-10T02:23:17.386Z,1011.41
2018-08-10T02:24:17.352Z,1011.44
2018-08-10T02:26:10.176Z,1011.40
2018-08-10T02:27:10.131Z,1011.42
2018-08-10T02:29:02.940Z,1011.42
2018-08-10T02:30:02.905Z,1011.42
2018-08-10T02:31:55.742Z,1011.43
2018-08-10T02:32:55.690Z,1011.43
2018-08-10T02:34:48.510Z,1011.48
2018-08-10T02:35:48.453Z,1011.49
2018-08-10T02:37:41.287Z,1011.52
2018-08-10T02:38:41.243Z,1011.53
2018-08-10T02:40:34.063Z,1011.55
2018-08-10T02:41:34.013Z,1011.54
2018-08-10T02:43:26.821Z,1011.56
2018-08-10T02:44:26.796Z,1011.61
2018-08-10T02:46:19.616Z,1011.57
2018-08-10T02:47:19.566Z,1011.62
2018-08-10T02:49:12.373Z,1011.64
2018-08-10T02:50:12.344Z,1011.64
2018-08-10T02:52:05.187Z,1011.67
2018-08-10T02:53:05.119Z,1011.66
2018-08-10T02:54:57.943Z,1011.70
2018-08-10T02:55:57.902Z,1011.69
2018-08-10T02:57:50.735Z,1011.69
2018-08-10T02:58:50.697Z,1011.72
2018-08-10T03:00:43.502Z,1011.72
2018-08-10T03:01:43.452Z,1011.73
2018-08-10T03:03:36.259Z,1011.74
2018-08-10T03:04:36.232Z,1011.74
2018-08-10T03:06:29.061Z,1011.76
2018-08-10T03:07:29.018Z,1011.75
2018-08-10T03:09:21.822Z,1011.78
2018-08-10T03:10:21.773Z,1011.78
2018-08-10T03:12:14.611Z,1011.84
2018-08-10T03:13:14.554Z,1011.83
2018-08-10T03:15:07.386Z,1011.81
2018-08-10T03:16:07.332Z,1011.82
2018-08-10T03:18:00.147Z,1011.84
2018-08-10T03:19:00.113Z,1011.82
2018-08-10T03:20:52.931Z,1011.84
2018-08-10T03:21:52.893Z,1011.85
2018-08-10T03:23:45.702Z,1011.88
2018-08-10T03:24:45.663Z,1011.83
2018-08-10T03:26:38.497Z,1011.87
2018-08-10T03:27:38.444Z,1011.90
2018-08-10T03:29:31.256Z,1011.93
2018-08-10T03:30:31.215Z,1011.92
2018-08-10T03:32:24.027Z,1011.94
2018-08-10T03:33:24.003Z,1011.96
2018-08-10T03:35:16.797Z,1011.95
2018-08-10T03:36:16.767Z,1011.94
2018-08-10T03:38:09.602Z,1012.01
2018-08-10T03:39:09.547Z,1011.97
2018-08-10T03:41:02.363Z,1011.99
2018-08-10T03:42:02.336Z,1011.99
2018-08-10T03:43:55.160Z,1012.03
2018-08-10T03:44:55.098Z,1012.04
2018-08-10T03:46:47.928Z,1012.05
2018-08-10T03:47:47.883Z,1012.12
2018-08-10T03:49:40.758Z,1012.08
2018-08-10T03:50:40.652Z,1012.12
2018-08-10T03:52:33.482Z,1012.13
2018-08-10T03:53:33.433Z,1012.12
2018-08-10T03:55:26.249Z,1012.13
2018-08-10T03:56:26.204Z,1012.13
2018-08-10T03:58:19.029Z,1012.12
2018-08-10T03:59:18.983Z,1012.17
2018-08-10T04:01:11.805Z,1012.16
2018-08-10T04:02:11.765Z,1012.17
2018-08-10T04:04:04.597Z,1012.19
2018-08-10T04:05:04.549Z,1012.17
2018-08-10T04:06:57.383Z,1012.22
2018-08-10T04:07:57.313Z,1012.22
2018-08-10T04:09:50.153Z,1012.21
2018-08-10T04:10:50.099Z,1012.22
2018-08-10T04:12:42.929Z,1012.23
2018-08-10T04:13:42.879Z,1012.27
2018-08-10T04:15:35.695Z,1012.24
2018-08-10T04:16:35.659Z,1012.31
2018-08-10T04:18:28.493Z,1012.25
2018-08-10T04:19:28.439Z,1012.29
2018-08-10T04:21:21.258Z,1012.29
2018-08-10T04:22:21.215Z,1012.31
2018-08-10T04:24:14.041Z,1012.34
2018-08-10T04:25:13.998Z,1012.33
2018-08-10T04:27:06.800Z,1012.34
2018-08-10T04:28:06.773Z,1012.41
2018-08-10T04:29:59.596Z,1012.39
2018-08-10T04:30:59.546Z,1012.39
2018-08-10T04:32:52.362Z,1012.42
2018-08-10T04:33:52.312Z,1012.41
2018-08-10T04:35:45.135Z,1012.41
2018-08-10T04:36:45.101Z,1012.42
2018-08-10T04:38:37.964Z,1012.45
2018-08-10T04:39:37.861Z,1012.45
2018-08-10T04:41:30.682Z,1012.41
2018-08-10T04:42:30.647Z,1012.45
2018-08-10T04:44:23.466Z,1012.43
2018-08-10T04:45:23.421Z,1012.43
2018-08-10T04:47:16.231Z,1012.43
2018-08-10T04:48:16.213Z,1012.41
2018-08-10T04:50:09.030Z,1012.44
2018-08-10T04:51:08.972Z,1012.47
2018-08-10T04:53:01.776Z,1012.51
2018-08-10T04:54:01.740Z,1012.47
2018-08-10T04:55:54.566Z,1012.58
2018-08-10T04:56:54.520Z,1012.55
2018-08-10T04:58:47.361Z,1012.63
2018-08-10T04:59:47.301Z,1012.62
2018-08-10T05:01:40.117Z,1012.63
2018-08-10T05:02:40.082Z,1012.66
2018-08-10T05:04:32.906Z,1012.66
2018-08-10T05:05:32.845Z,1012.68
2018-08-10T05:07:25.652Z,1012.69
2018-08-10T05:08:25.626Z,1012.68
2018-08-10T05:10:18.448Z,1012.71
2018-08-10T05:11:18.417Z,1012.69
2018-08-10T05:13:11.219Z,1012.69
2018-08-10T05:14:11.164Z,1012.71
2018-08-10T05:16:04.054Z,1012.71
2018-08-10T05:17:03.966Z,1012.72
2018-08-10T05:18:56.758Z,1012.70
2018-08-10T05:19:56.733Z,1012.73
2018-08-10T05:21:49.558Z,1012.74
2018-08-10T05:22:49.519Z,1012.77
2018-08-10T05:24:42.341Z,1012.81
2018-08-10T05:25:42.283Z,1012.83
2018-08-10T05:27:35.113Z,1012.90
2018-08-10T05:28:35.071Z,1012.90
2018-08-10T05:30:27.898Z,1012.92
2018-08-10T05:31:27.848Z,1012.95
2018-08-10T05:33:20.662Z,1012.99
2018-08-10T05:34:20.617Z,1012.98
2018-08-10T05:36:13.449Z,1012.96
2018-08-10T05:37:13.393Z,1012.98
2018-08-10T05:39:06.709Z,1013.00
2018-08-10T05:40:06.679Z,1012.97
2018-08-10T05:41:59.499Z,1012.97
2018-08-10T05:42:59.462Z,1013.01
2018-08-10T05:44:52.272Z,1013.02
2018-08-10T05:45:52.233Z,1013.02
2018-08-10T05:47:45.059Z,1013.02
2018-08-10T05:48:45.013Z,1013.06
2018-08-10T05:50:37.837Z,1013.03
2018-08-10T05:51:37.793Z,1013.07
2018-08-10T05:53:30.604Z,1013.02
2018-08-10T05:54:30.576Z,1013.05
2018-08-10T05:56:23.400Z,1013.03
2018-08-10T05:57:23.347Z,1013.01
2018-08-10T05:59:16.150Z,1013.06
2018-08-10T06:00:16.119Z,1013.08
2018-08-10T06:02:08.943Z,1013.10
2018-08-10T06:03:08.893Z,1013.11
2018-08-10T06:05:01.710Z,1013.11
2018-08-10T06:06:01.681Z,1013.15
2018-08-10T06:07:54.498Z,1013.12
2018-08-10T06:08:54.445Z,1013.11
2018-08-10T06:10:47.253Z,1013.15
2018-08-10T06:11:47.215Z,1013.16
2018-08-10T06:13:40.039Z,1013.22
2018-08-10T06:14:39.988Z,1013.17
2018-08-10T06:16:32.799Z,1013.25
2018-08-10T06:17:32.785Z,1013.24
2018-08-10T06:19:25.610Z,1013.23
2018-08-10T06:20:25.544Z,1013.28
2018-08-10T06:22:18.374Z,1013.27
2018-08-10T06:23:18.327Z,1013.26
2018-08-10T06:25:11.260Z,1013.30
2018-08-10T06:26:11.115Z,1013.32
2018-08-10T06:28:03.947Z,1013.32
2018-08-10T06:29:03.906Z,1013.30
2018-08-10T06:30:56.729Z,1013.27
2018-08-10T06:31:56.719Z,1013.32
2018-08-10T06:33:49.586Z,1013.35
2018-08-10T06:34:49.470Z,1013.34
2018-08-10T06:36:42.299Z,1013.33
2018-08-10T06:37:42.249Z,1013.28
2018-08-10T06:39:35.081Z,1013.36
2018-08-10T06:40:35.016Z,1013.32
2018-08-10T06:42:27.835Z,1013.37
2018-08-10T06:43:27.806Z,1013.41
2018-08-10T06:45:20.678Z,1013.37
2018-08-10T06:46:20.580Z,1013.41
2018-08-10T06:48:13.411Z,1013.43
2018-08-10T06:49:13.361Z,1013.43
2018-08-10T06:51:06.202Z,1013.40
2018-08-10T06:52:06.159Z,1013.42
2018-08-10T06:53:58.972Z,1013.42
2018-08-10T06:54:58.916Z,1013.40
2018-08-10T06:56:51.732Z,1013.44
2018-08-10T06:57:51.699Z,1013.43
2018-08-10T06:59:44.544Z,1013.44
2018-08-10T07:00:44.535Z,1013.45
2018-08-10T07:02:37.289Z,1013.49
2018-08-10T07:03:37.255Z,1013.43
2018-08-10T07:05:30.088Z,1013.48
2018-08-10T07:06:30.046Z,1013.50
2018-08-10T07:08:22.868Z,1013.51
2018-08-10T07:09:22.822Z,1013.48
2018-08-10T07:11:15.642Z,1013.45
2018-08-10T07:12:15.594Z,1013.53
2018-08-10T07:14:08.444Z,1013.46
2018-08-10T07:15:08.392Z,1013.45
2018-08-10T07:17:01.210Z,1013.50
2018-08-10T07:18:01.151Z,1013.52
2018-08-10T07:19:53.987Z,1013.54
2018-08-10T07:20:53.947Z,1013.58
2018-08-10T07:22:46.803Z,1013.52
2018-08-10T07:23:46.742Z,1013.53
2018-08-10T07:25:39.563Z,1013.69
2018-08-10T07:26:39.511Z,1013.63
2018-08-10T07:28:32.342Z,1013.65
2018-08-10T07:29:32.298Z,1013.68
2018-08-10T07:31:25.127Z,1013.69
2018-08-10T07:32:25.097Z,1013.76
2018-08-10T07:34:17.916Z,1013.76
2018-08-10T07:35:17.867Z,1013.80
2018-08-10T07:37:11.196Z,1013.73
2018-08-10T07:38:11.138Z,1013.74
2018-08-10T07:40:03.954Z,1013.73
2018-08-10T07:41:03.929Z,1013.70
2018-08-10T07:42:56.762Z,1013.81
2018-08-10T07:43:56.709Z,1013.76
2018-08-10T07:45:50.017Z,1013.78
2018-08-10T07:46:49.979Z,1013.73
2018-08-10T07:48:42.812Z,1013.70
2018-08-10T07:49:42.753Z,1013.84
2018-08-10T07:51:35.589Z,1013.79
2018-08-10T07:52:35.535Z,1013.80
2018-08-10T07:54:28.362Z,1013.79
2018-08-10T07:55:28.325Z,1013.83
2018-08-10T07:57:21.139Z,1013.90
2018-08-10T07:58:21.109Z,1013.86
2018-08-10T08:00:13.919Z,1013.91
2018-08-10T08:01:13.869Z,1013.94
2018-08-10T08:03:07.270Z,1013.90
2018-08-10T08:04:07.161Z,1013.90
2018-08-10T08:05:59.990Z,1013.96
2018-08-10T08:06:59.966Z,1013.99
2018-08-10T08:08:52.782Z,1013.98
2018-08-10T08:09:52.716Z,1013.99
2018-08-10T08:11:46.042Z,1014.03
2018-08-10T08:12:46.013Z,1014.04
2018-08-10T08:14:38.836Z,1014.01
2018-08-10T08:15:38.790Z,1014.03
2018-08-10T08:17:31.615Z,1014.01
2018-08-10T08:18:31.575Z,1014.03
2018-08-10T08:20:24.389Z,1014.08
2018-08-10T08:21:24.351Z,1014.08
2018-08-10T08:23:17.185Z,1014.03
2018-08-10T08:24:17.139Z,1014.05
2018-08-10T08:26:09.946Z,1014.02
2018-08-10T08:27:09.932Z,1014.09
2018-08-10T08:29:02.751Z,1014.04
2018-08-10T08:30:02.703Z,1014.03
2018-08-10T08:31:55.522Z,1014.04
2018-08-10T08:32:55.499Z,1014.02
2018-08-10T08:34:48.376Z,1014.02
2018-08-10T08:35:48.270Z,1014.05
2018-08-10T08:37:41.579Z,1014.07
2018-08-10T08:38:41.556Z,1014.04
2018-08-10T08:40:34.385Z,1014.05
2018-08-10T08:41:34.337Z,1014.06
2018-08-10T08:43:27.155Z,1014.06
2018-08-10T08:44:27.121Z,1014.03
2018-08-10T08:46:20.117Z,1014.05
2018-08-10T08:47:19.911Z,1014.06
2018-08-10T08:49:12.720Z,1014.06
2018-08-10T08:50:12.715Z,1014.08
2018-08-10T08:52:05.518Z,1014.03
2018-08-10T08:53:05.465Z,1014.04
2018-08-10T08:54:58.821Z,1014.00
2018-08-10T08:55:58.742Z,1014.00
2018-08-10T08:57:52.549Z,1014.06
2018-08-10T08:58:52.520Z,1014.07
2018-08-10T09:00:45.356Z,1014.09
2018-08-10T09:01:45.311Z,1014.08
2018-08-10T09:03:38.131Z,1014.00
2018-08-10T09:04:38.096Z,1014.07
2018-08-10T09:06:30.932Z,1014.08
2018-08-10T09:07:30.899Z,1014.06
2018-08-10T09:09:23.701Z,1014.10
2018-08-10T09:10:23.667Z,1014.10
2018-08-10T09:12:16.494Z,1014.07
2018-08-10T09:13:16.453Z,1014.13
2018-08-10T09:15:09.267Z,1014.11
2018-08-10T09:16:09.238Z,1014.10
2018-08-10T09:18:02.063Z,1014.13
2018-08-10T09:19:02.038Z,1014.14
2018-08-10T09:20:54.858Z,1014.05
2018-08-10T09:21:54.821Z,1014.05
2018-08-10T09:23:47.652Z,1014.06
2018-08-10T09:24:47.593Z,1014.09
2018-08-10T09:26:40.460Z,1014.02
2018-08-10T09:27:40.368Z,1014.08
2018-08-10T09:29:33.188Z,1014.07
2018-08-10T09:30:33.162Z,1014.09
2018-08-10T09:32:26.983Z,1014.13
2018-08-10T09:33:26.942Z,1014.08
2018-08-10T09:35:19.758Z,1014.08
2018-08-10T09:36:19.743Z,1014.12
2018-08-10T09:38:12.551Z,1014.03
2018-08-10T09:39:12.504Z,1014.00
2018-08-10T09:41:05.313Z,1014.07
2018-08-10T09:42:05.307Z,1014.16
2018-08-10T09:43:58.133Z,1014.11
2018-08-10T09:44:58.067Z,1014.10
2018-08-10T09:46:50.880Z,1014.13
2018-08-10T09:47:50.857Z,1014.11
2018-08-10T09:49:43.700Z,1014.07
2018-08-10T09:50:43.634Z,1014.12
2018-08-10T09:52:36.478Z,1014.10
2018-08-10T09:53:36.422Z,1014.11
2018-08-10T09:55:29.304Z,1014.13
2018-08-10T09:56:29.256Z,1014.16
2018-08-10T09:58:22.083Z,1014.22
2018-08-10T09:59:22.041Z,1014.15
2018-08-10T10:01:14.859Z,1014.15
2018-08-10T10:02:14.819Z,1014.13
2018-08-10T10:04:07.660Z,1014.14
2018-08-10T10:05:07.598Z,1014.13
2018-08-10T10:07:00.463Z,1014.68
2018-08-10T10:08:00.430Z,1014.64
2018-08-10T10:09:53.265Z,1014.02
2018-08-10T10:10:53.218Z,1014.08
2018-08-10T10:12:46.054Z,1014.11
2018-08-10T10:13:46.015Z,1014.13
2018-08-10T10:15:38.832Z,1014.20
2018-08-10T10:16:38.788Z,1014.66
2018-08-10T10:18:31.624Z,1014.61
2018-08-10T10:19:31.583Z,1014.61
2018-08-10T10:21:24.404Z,1014.58
2018-08-10T10:22:24.379Z,1014.66
2018-08-10T10:24:17.228Z,1014.62
2018-08-10T10:25:17.174Z,1014.64
2018-08-10T10:27:10.028Z,1014.00
2018-08-10T10:28:09.969Z,1013.97
2018-08-10T10:30:02.810Z,1014.66
2018-08-10T10:31:02.764Z,1014.51
2018-08-10T10:32:55.589Z,1014.57
2018-08-10T10:33:55.563Z,1014.55
2018-08-10T10:35:48.416Z,1014.58
2018-08-10T10:36:48.363Z,1014.64
2018-08-10T10:38:41.204Z,1014.61
2018-08-10T10:39:41.166Z,1013.87
2018-08-10T10:41:34.168Z,1014.00
2018-08-10T10:42:33.966Z,1014.65
2018-08-10T10:44:26.814Z,1014.51
2018-08-10T10:45:26.786Z,1013.91
2018-08-10T10:47:19.669Z,1014.69
2018-08-10T10:48:19.570Z,1014.60
2018-08-10T10:50:12.406Z,1013.97
2018-08-10T10:51:12.379Z,1014.50
2018-08-10T10:53:05.224Z,1014.58
2018-08-10T10:54:05.169Z,1014.55
2018-08-10T10:55:58.020Z,1014.55
2018-08-10T10:56:58.025Z,1014.19
2018-08-10T10:58:50.798Z,1014.56
2018-08-10T10:59:50.778Z,1014.54
2018-08-10T11:01:43.620Z,1014.52
2018-08-10T11:02:43.580Z,1014.48
2018-08-10T11:04:36.421Z,1013.86
2018-08-10T11:05:36.381Z,1013.81
2018-08-10T11:07:29.254Z,1013.94
2018-08-10T11:08:29.202Z,1014.57
2018-08-10T11:10:22.021Z,1013.90
2018-08-10T11:11:22.001Z,1013.98
2018-08-10T11:13:14.850Z,1013.99
2018-08-10T11:14:14.796Z,1013.96
2018-08-10T11:16:07.655Z,1013.96
2018-08-10T11:17:07.596Z,1014.05
2018-08-10T11:19:00.467Z,1014.12
2018-08-10T11:20:00.445Z,1014.58
2018-08-10T11:21:53.276Z,1014.40
2018-08-10T11:22:53.236Z,1014.38
2018-08-10T11:24:46.056Z,1014.27
2018-08-10T11:25:46.178Z,1013.94
2018-08-10T11:27:38.879Z,1013.93
2018-08-10T11:28:38.837Z,1013.97
2018-08-10T11:30:31.665Z,1014.00
2018-08-10T11:31:31.640Z,1013.98
2018-08-10T11:33:24.501Z,1013.95
2018-08-10T11:34:24.446Z,1013.98
2018-08-10T11:36:17.270Z,1014.38
2018-08-10T11:37:17.246Z,1014.08
2018-08-10T11:39:10.083Z,1013.87
2018-08-10T11:40:10.034Z,1014.06
2018-08-10T11:42:02.871Z,1014.22
2018-08-10T11:43:02.835Z,1014.21
2018-08-10T11:44:55.699Z,1014.16
2018-08-10T11:45:55.628Z,1014.24
2018-08-10T11:47:48.462Z,1014.20
2018-08-10T11:48:48.426Z,1014.10
2018-08-10T11:50:41.258Z,1014.09
2018-08-10T11:51:41.223Z,1013.97
2018-08-10T11:53:34.073Z,1013.72
2018-08-10T11:54:34.028Z,1013.79
2018-08-10T11:56:26.862Z,1013.75
2018-08-10T11:57:26.897Z,1014.00
2018-08-10T11:59:19.673Z,1013.97
2018-08-10T12:00:19.638Z,1014.16
2018-08-10T12:02:12.468Z,1013.97
2018-08-10T12:03:12.442Z,1014.04
2018-08-10T12:05:05.276Z,1014.01
2018-08-10T12:06:05.358Z,1014.10
2018-08-10T12:07:58.042Z,1013.99
2018-08-10T12:08:58.029Z,1014.00
2018-08-10T12:10:50.861Z,1014.03
2018-08-10T12:11:50.828Z,1013.93
2018-08-10T12:13:43.672Z,1014.08
2018-08-10T12:14:43.632Z,1013.98
2018-08-10T12:16:36.454Z,1013.89
2018-08-10T12:17:36.425Z,1013.97
2018-08-10T12:19:29.279Z,1013.88
2018-08-10T12:20:29.238Z,1013.87
2018-08-10T12:22:22.063Z,1013.56
2018-08-10T12:23:22.035Z,1014.00
2018-08-10T12:25:14.893Z,1014.05
2018-08-10T12:26:14.850Z,1013.99
2018-08-10T12:28:07.669Z,1013.98
2018-08-10T12:29:07.647Z,1013.70
2018-08-10T12:31:00.499Z,1013.63
2018-08-10T12:32:00.458Z,1013.88
2018-08-10T12:33:53.279Z,1013.88
2018-08-10T12:34:53.248Z,1013.92
2018-08-10T12:36:46.105Z,1013.87
2018-08-10T12:37:46.058Z,1013.91
2018-08-10T12:39:38.888Z,1013.88
2018-08-10T12:40:38.843Z,1013.89
2018-08-10T12:42:31.705Z,1013.66
2018-08-10T12:43:31.665Z,1013.88
2018-08-10T12:45:24.505Z,1013.89
2018-08-10T12:46:24.467Z,1013.77
2018-08-10T12:48:17.293Z,1013.62
2018-08-10T12:49:17.265Z,1013.74
2018-08-10T12:51:10.605Z,1013.63
2018-08-10T12:52:10.563Z,1013.50
2018-08-10T12:54:03.401Z,1013.61
2018-08-10T12:55:03.374Z,1013.64
2018-08-10T12:56:56.218Z,1013.60
2018-08-10T12:57:56.160Z,1013.69
2018-08-10T12:59:49.000Z,1013.94
2018-08-10T13:00:48.970Z,1013.90
2018-08-10T13:02:41.908Z,1013.60
2018-08-10T13:03:41.784Z,1013.67
2018-08-10T13:05:34.615Z,1013.61
2018-08-10T13:06:34.571Z,1013.61
2018-08-10T13:08:27.411Z,1013.87
2018-08-10T13:09:27.387Z,1013.61
2018-08-10T13:11:20.237Z,1013.63
2018-08-10T13:12:20.185Z,1013.64
2018-08-10T13:14:13.004Z,1013.87
2018-08-10T13:15:12.980Z,1013.74
2018-08-10T13:17:05.816Z,1013.80
2018-08-10T13:18:05.781Z,1013.82
2018-08-10T13:19:58.601Z,1013.78
2018-08-10T13:20:58.577Z,1013.72
2018-08-10T13:22:51.412Z,1013.56
2018-08-10T13:23:51.445Z,1013.59
2018-08-10T13:25:44.215Z,1013.61
2018-08-10T13:26:44.180Z,1013.64
2018-08-10T13:28:37.036Z,1013.94
2018-08-10T13:29:37.017Z,1013.67
2018-08-10T13:31:30.734Z,1013.85
2018-08-10T13:32:30.699Z,1013.87
2018-08-10T13:34:23.556Z,1013.83
2018-08-10T13:35:23.552Z,1013.82
2018-08-10T13:37:16.423Z,1013.76
2018-08-10T13:38:16.478Z,1013.73
2018-08-10T13:40:09.403Z,1013.78
2018-08-10T13:41:09.221Z,1013.76
2018-08-10T13:43:01.981Z,1013.71
2018-08-10T13:44:01.933Z,1013.79
2018-08-10T13:45:54.770Z,1013.57
2018-08-10T13:46:54.746Z,1013.60
2018-08-10T13:48:47.582Z,1013.56
2018-08-10T13:49:47.541Z,1013.50
2018-08-10T13:51:40.377Z,1013.59
2018-08-10T13:52:40.351Z,1013.63
2018-08-10T13:54:34.795Z,1013.63
2018-08-10T13:55:33.155Z,1013.64
2018-08-10T13:57:25.996Z,1013.59
2018-08-10T13:58:25.965Z,1013.52
2018-08-10T14:00:18.822Z,1013.56
2018-08-10T14:01:18.773Z,1013.55
2018-08-10T14:03:11.606Z,1013.56
2018-08-10T14:04:11.577Z,1013.55
2018-08-10T14:06:04.463Z,1013.50
2018-08-10T14:07:04.403Z,1013.46
2018-08-10T14:08:57.238Z,1013.46
2018-08-10T14:09:57.193Z,1013.48
2018-08-10T14:11:50.052Z,1013.44
2018-08-10T14:12:50.007Z,1013.39
2018-08-10T14:14:42.838Z,1013.21
2018-08-10T14:15:42.809Z,1013.17
2018-08-10T14:17:35.633Z,1013.21
2018-08-10T14:18:35.597Z,1013.15
2018-08-10T14:20:28.447Z,1013.31
2018-08-10T14:21:28.394Z,1013.29
2018-08-10T14:23:21.222Z,1013.27
2018-08-10T14:24:21.199Z,1013.28
2018-08-10T14:26:14.022Z,1013.24
2018-08-10T14:27:13.994Z,1013.17
2018-08-10T14:29:07.644Z,1013.18
2018-08-10T14:30:06.802Z,1013.18
2018-08-10T14:31:59.653Z,1013.12
2018-08-10T14:32:59.588Z,1013.03
2018-08-10T14:34:52.417Z,1013.13
2018-08-10T14:35:52.399Z,1013.19
2018-08-10T14:37:45.245Z,1013.13
2018-08-10T14:38:45.195Z,1013.08
2018-08-10T14:40:38.055Z,1013.00
2018-08-10T14:41:38.002Z,1012.96
2018-08-10T14:43:30.868Z,1013.00
2018-08-10T14:44:30.803Z,1013.14
2018-08-10T14:46:23.667Z,1013.13
2018-08-10T14:47:23.605Z,1013.11
2018-08-10T14:49:16.464Z,1013.00
2018-08-10T14:50:16.437Z,1012.98
2018-08-10T14:52:09.274Z,1012.98
2018-08-10T14:53:09.247Z,1013.02
2018-08-10T14:55:02.079Z,1013.13
2018-08-10T14:56:02.045Z,1012.94
2018-08-10T14:57:54.885Z,1012.91
2018-08-10T14:58:54.843Z,1012.90
2018-08-10T15:00:47.766Z,1012.93
2018-08-10T15:01:47.636Z,1012.99
2018-08-10T15:03:40.495Z,1012.99
2018-08-10T15:04:40.448Z,1012.91
2018-08-10T15:06:33.375Z,1012.82
2018-08-10T15:07:33.240Z,1012.79
2018-08-10T15:09:26.075Z,1012.82
2018-08-10T15:10:26.029Z,1012.82
2018-08-10T15:12:19.230Z,1012.81
2018-08-10T15:13:18.846Z,1012.78
2018-08-10T15:15:11.707Z,1012.80
2018-08-10T15:16:11.639Z,1012.82
2018-08-10T15:18:04.479Z,1012.81
2018-08-10T15:19:04.451Z,1012.74
2018-08-10T15:20:57.269Z,1012.70
2018-08-10T15:21:57.240Z,1012.72
2018-08-10T15:23:50.070Z,1012.79
2018-08-10T15:24:50.094Z,1012.74
2018-08-10T15:26:42.844Z,1012.73
2018-08-10T15:27:42.821Z,1012.73
2018-08-10T15:29:35.662Z,1012.67
2018-08-10T15:30:35.663Z,1012.68
2018-08-10T15:32:28.486Z,1012.78
2018-08-10T15:33:28.435Z,1012.65
2018-08-10T15:35:21.276Z,1012.69
2018-08-10T15:36:21.240Z,1012.66
2018-08-10T15:38:14.140Z,1012.65
2018-08-10T15:39:14.032Z,1012.71
2018-08-10T15:41:06.837Z,1012.70
2018-08-10T15:42:06.807Z,1012.67
2018-08-10T15:43:59.647Z,1012.64
2018-08-10T15:44:59.595Z,1012.71
2018-08-10T15:46:52.917Z,1012.69
2018-08-10T15:47:52.890Z,1012.71
2018-08-10T15:49:45.769Z,1012.81
2018-08-10T15:50:45.671Z,1012.70
2018-08-10T15:52:39.003Z,1012.70
2018-08-10T15:53:38.971Z,1012.68
2018-08-10T15:55:31.807Z,1012.70
2018-08-10T15:56:31.765Z,1012.77
2018-08-10T15:58:24.596Z,1012.83
2018-08-10T15:59:24.559Z,1012.84
2018-08-10T16:01:17.899Z,1012.77
2018-08-10T16:02:17.852Z,1012.69
2018-08-10T16:04:10.683Z,1012.60
2018-08-10T16:05:10.646Z,1012.61
2018-08-10T16:07:03.483Z,1012.64
2018-08-10T16:08:03.446Z,1012.59
2018-08-10T16:09:56.785Z,1012.59
2018-08-10T16:10:56.763Z,1012.58
2018-08-10T16:12:49.553Z,1012.57
2018-08-10T16:13:49.526Z,1012.63
2018-08-10T16:15:42.362Z,1012.67
2018-08-10T16:16:42.338Z,1012.61
2018-08-10T16:18:35.143Z,1012.68
2018-08-10T16:19:35.113Z,1012.61
2018-08-10T16:21:28.106Z,1012.64
2018-08-10T16:22:28.082Z,1012.65
2018-08-10T16:24:20.956Z,1012.58
2018-08-10T16:25:20.924Z,1012.60
2018-08-10T16:27:13.813Z,1012.62
2018-08-10T16:28:13.781Z,1012.59
2018-08-10T16:30:07.101Z,1012.59
2018-08-10T16:31:07.085Z,1012.58
2018-08-10T16:32:59.915Z,1012.58
2018-08-10T16:33:59.865Z,1012.56
2018-08-10T16:35:52.733Z,1012.52
2018-08-10T16:36:52.667Z,1012.57
2018-08-10T16:38:45.479Z,1012.51
2018-08-10T16:39:45.434Z,1012.57
2018-08-10T16:41:38.287Z,1012.61
2018-08-10T16:42:38.219Z,1012.64
2018-08-10T16:44:31.105Z,1012.60
2018-08-10T16:45:31.014Z,1012.57
2018-08-10T16:47:23.858Z,1012.49
2018-08-10T16:48:23.814Z,1012.49
2018-08-10T16:50:16.638Z,1012.48
2018-08-10T16:51:16.618Z,1012.51
2018-08-10T16:53:09.450Z,1012.53
2018-08-10T16:54:09.408Z,1012.48
2018-08-10T16:56:02.228Z,1012.43
2018-08-10T16:57:02.210Z,1012.43
2018-08-10T16:58:55.030Z,1012.42
2018-08-10T16:59:54.995Z,1012.51
2018-08-10T17:01:47.839Z,1012.52
2018-08-10T17:02:47.863Z,1012.50
2018-08-10T17:04:40.601Z,1012.45
2018-08-10T17:05:40.570Z,1012.42
2018-08-10T17:07:33.434Z,1012.47
2018-08-10T17:08:33.372Z,1012.47
2018-08-10T17:10:27.195Z,1012.53
2018-08-10T17:11:27.185Z,1012.51
2018-08-10T17:13:20.985Z,1012.52
2018-08-10T17:14:20.959Z,1012.55
2018-08-10T17:16:13.783Z,1012.53
2018-08-10T17:17:13.732Z,1012.52
2018-08-10T17:19:06.583Z,1012.54
2018-08-10T17:20:06.529Z,1012.59
2018-08-10T17:21:59.354Z,1012.48
2018-08-10T17:22:59.325Z,1012.49
2018-08-10T17:24:52.171Z,1012.46